Time;durP1;ratioP1;P1;durP2;ratioP2;P2;SDS_P1;SDS_P2;PMS_P1;PMS_P2;Temp;Humidity;BMP_temperature;BMP_pressure;BME280_temperature;BME280_humidity;BME280_pressure;Samples;Min_cycle;Max_cycle;Signal;HPM_P1;HPM_P2
2020/12/18 00:00:08;;;;;;;16.57;7.20;;;;;;;6.37;87.68;101617.47;5159024;27;20478;-60
2020/12/18 00:02:42;;;;;;;21.30;9.80;;;;;;;6.32;88.11;101612.00;5160466;27;20466;-60
2020/12/18 00:05:14;;;;;;;20.47;9.90;;;;;;;6.28;88.06;101622.81;5158385;27;20625;-61
2020/12/18 00:07:42;;;;;;;27.20;12.03;;;;;;;6.24;88.20;101621.69;5160466;27;20454;-60
2020/12/18 00:10:08;;;;;;;14.10;7.00;;;;;;;6.18;88.21;101622.16;5158871;27;20476;-60
2020/12/18 00:12:35;;;;;;;12.33;7.17;;;;;;;6.15;88.36;101624.47;5160356;27;20457;-61
2020/12/18 00:15:02;;;;;;;24.30;11.77;;;;;;;6.11;88.56;101624.13;5158412;27;20482;-61
2020/12/18 00:17:30;;;;;;;24.73;11.60;;;;;;;6.08;88.39;101619.66;5160480;27;20479;-60
2020/12/18 00:19:57;;;;;;;23.03;10.57;;;;;;;5.99;88.78;101622.41;5158551;27;20514;-60
2020/12/18 00:22:24;;;;;;;25.70;11.03;;;;;;;6.01;88.71;101628.53;5160186;27;20466;-60
2020/12/18 00:24:53;;;;;;;19.10;9.73;;;;;;;5.95;88.80;101628.97;5158399;27;20482;-61
2020/12/18 00:27:19;;;;;;;19.77;10.80;;;;;;;5.97;88.82;101625.63;5160031;27;20557;-60
2020/12/18 00:29:46;;;;;;;17.77;10.20;;;;;;;5.90;89.31;101630.28;5158059;27;20473;-59
2020/12/18 00:32:12;;;;;;;24.37;12.00;;;;;;;5.90;89.18;101626.88;5160025;27;20458;-60
2020/12/18 00:34:40;;;;;;;25.00;10.77;;;;;;;5.88;88.99;101620.72;5158103;27;20501;-60
2020/12/18 00:37:06;;;;;;;23.27;12.03;;;;;;;5.84;89.13;101628.97;5160057;27;20554;-60
2020/12/18 00:39:33;;;;;;;30.57;11.83;;;;;;;5.79;89.30;101631.16;5158102;27;20484;-60
2020/12/18 00:41:59;;;;;;;21.97;12.03;;;;;;;5.75;89.23;101630.03;5159720;27;20897;-60
2020/12/18 00:44:26;;;;;;;19.87;10.70;;;;;;;5.71;89.43;101630.59;5157967;27;20781;-60
2020/12/18 00:46:52;;;;;;;20.60;11.00;;;;;;;5.65;89.68;101632.69;5160068;27;20551;-60
2020/12/18 00:49:19;;;;;;;22.43;9.90;;;;;;;5.65;89.89;101637.81;5158185;27;20538;-60
2020/12/18 00:51:52;;;;;;;27.17;12.93;;;;;;;5.56;90.04;101626.88;5159608;27;20462;-60
2020/12/18 00:54:19;;;;;;;21.50;12.07;;;;;;;5.63;89.93;101639.34;5157793;27;20537;-60
2020/12/18 00:56:45;;;;;;;24.43;11.43;;;;;;;5.58;89.85;101633.88;5159753;27;20551;-60
2020/12/18 00:59:12;;;;;;;24.03;10.30;;;;;;;5.50;90.07;101632.41;5158197;27;20479;-60
2020/12/18 01:01:38;;;;;;;20.73;9.77;;;;;;;5.52;90.01;101636.88;5159433;27;20532;-60
2020/12/18 01:04:05;;;;;;;22.53;11.40;;;;;;;5.48;90.13;101645.09;5156753;27;20478;-60
2020/12/18 01:06:32;;;;;;;22.47;9.87;;;;;;;5.45;90.12;101643.97;5159420;27;20568;-60
2020/12/18 01:08:59;;;;;;;26.60;10.80;;;;;;;5.40;90.11;101638.50;5159416;27;20493;-60
2020/12/18 01:11:26;;;;;;;24.63;11.63;;;;;;;5.40;90.08;101647.06;5159045;27;20462;-60
2020/12/18 01:13:53;;;;;;;25.00;11.90;;;;;;;5.39;90.20;101649.53;5159099;27;20455;-60
2020/12/18 01:16:19;;;;;;;26.47;11.33;;;;;;;5.35;90.13;101639.81;5157351;27;20578;-60
2020/12/18 01:18:46;;;;;;;21.93;8.80;;;;;;;5.39;90.03;101644.41;5159185;27;20455;-60
2020/12/18 01:21:25;;;;;;;22.93;10.27;;;;;;;5.39;90.01;101649.53;5157433;27;20959;-61
2020/12/18 01:23:52;;;;;;;25.60;10.53;;;;;;;5.48;89.70;101659.56;5158915;27;20455;-60
2020/12/18 01:26:19;;;;;;;28.70;12.20;;;;;;;5.46;89.81;101654.34;5157045;27;20505;-59
2020/12/18 01:28:46;;;;;;;19.20;10.90;;;;;;;5.43;89.85;101666.88;5159119;27;20455;-60
2020/12/18 01:31:13;;;;;;;18.20;10.27;;;;;;;5.52;89.38;101659.00;5157371;27;20479;-59
2020/12/18 01:33:39;;;;;;;18.60;9.37;;;;;;;5.50;89.36;101664.00;5158794;27;20455;-59
2020/12/18 01:36:08;;;;;;;18.37;10.53;;;;;;;5.51;89.25;101668.38;5156535;27;20487;-60
2020/12/18 01:38:35;;;;;;;19.63;8.90;;;;;;;5.60;88.75;101664.72;5158230;27;20938;-60
2020/12/18 01:41:01;;;;;;;25.57;10.60;;;;;;;5.67;88.54;101667.88;5156736;27;20790;-60
2020/12/18 01:43:29;;;;;;;19.10;8.07;;;;;;;5.65;88.80;101676.22;5158902;27;20459;-60
2020/12/18 01:45:59;;;;;;;18.40;9.67;;;;;;;5.62;88.83;101674.31;5156976;27;20505;-60
2020/12/18 01:48:26;;;;;;;22.23;8.97;;;;;;;5.63;88.71;101675.19;5158429;27;20491;-60
2020/12/18 01:50:53;;;;;;;23.63;9.33;;;;;;;5.62;88.88;101671.75;5156474;27;20789;-59
2020/12/18 01:53:21;;;;;;;29.97;10.87;;;;;;;5.64;88.78;101671.88;5158680;27;20451;-60
2020/12/18 01:55:48;;;;;;;17.00;9.80;;;;;;;5.66;88.84;101678.00;5156474;27;20990;-60
2020/12/18 01:58:15;;;;;;;22.00;9.20;;;;;;;5.64;88.77;101688.13;5158169;27;20890;-60
2020/12/18 02:00:43;;;;;;;14.57;8.00;;;;;;;5.68;88.64;101679.00;5156399;27;20486;-60
2020/12/18 02:03:10;;;;;;;23.83;9.80;;;;;;;5.64;88.82;101684.69;5158346;27;20462;-60
2020/12/18 02:05:36;;;;;;;21.13;11.00;;;;;;;5.70;88.92;101672.34;5156273;27;20966;-60
2020/12/18 02:08:04;;;;;;;23.40;11.07;;;;;;;5.75;88.61;101681.25;5158364;27;20768;-61
2020/12/18 02:10:31;;;;;;;15.30;9.40;;;;;;;5.74;88.19;101683.72;5155342;27;20475;-60
2020/12/18 02:12:58;;;;;;;18.17;10.27;;;;;;;5.67;88.63;101675.56;5156754;27;20462;-59
2020/12/18 02:15:26;;;;;;;19.40;9.93;;;;;;;5.66;88.51;101678.88;5154821;27;20487;-61
2020/12/18 02:17:53;;;;;;;19.77;9.07;;;;;;;5.66;88.61;101676.31;5156556;27;20487;-60
2020/12/18 02:20:20;;;;;;;19.77;9.10;;;;;;;5.72;88.35;101685.25;5154865;27;20819;-60
2020/12/18 02:22:47;;;;;;;22.20;10.30;;;;;;;5.68;88.46;101679.00;5156672;27;20448;-60
2020/12/18 02:25:14;;;;;;;20.23;9.80;;;;;;;5.73;88.07;101681.91;5155022;27;20486;-60
2020/12/18 02:27:42;;;;;;;17.83;9.87;;;;;;;5.79;88.16;101688.41;5156551;27;20452;-60
2020/12/18 02:30:10;;;;;;;24.13;10.50;;;;;;;5.78;87.96;101691.75;5154940;27;20518;-60
2020/12/18 02:32:36;;;;;;;24.77;11.07;;;;;;;5.80;87.98;101689.31;5156317;27;20743;-60
2020/12/18 02:35:04;;;;;;;17.97;8.87;;;;;;;5.72;87.50;101691.28;5154807;27;20479;-61
2020/12/18 02:37:31;;;;;;;24.90;10.97;;;;;;;5.71;87.79;101699.75;5156363;27;20499;-60
2020/12/18 02:39:58;;;;;;;21.77;10.17;;;;;;;5.70;87.88;101690.28;5153309;27;20487;-60
2020/12/18 02:42:24;;;;;;;16.33;7.77;;;;;;;5.67;87.97;101690.03;5156341;27;20531;-59
2020/12/18 02:44:52;;;;;;;20.57;10.57;;;;;;;5.73;87.88;101693.06;5154256;27;20487;-60
2020/12/18 02:47:18;;;;;;;19.90;10.10;;;;;;;5.71;87.93;101681.81;5156884;27;20451;-60
2020/12/18 02:49:45;;;;;;;18.33;9.30;;;;;;;5.72;87.73;101681.03;5155236;27;20475;-60
2020/12/18 02:52:21;;;;;;;21.77;10.00;;;;;;;5.75;87.55;101681.25;5155224;27;20486;-60
2020/12/18 02:54:48;;;;;;;20.40;8.70;;;;;;;5.68;87.87;101686.69;5155129;27;20563;-60
2020/12/18 02:57:14;;;;;;;26.17;9.60;;;;;;;5.77;87.47;101689.97;5158162;27;20456;-59
2020/12/18 02:59:41;;;;;;;16.43;9.37;;;;;;;5.73;87.34;101693.06;5156181;27;20559;-59
2020/12/18 03:02:09;;;;;;;19.77;9.30;;;;;;;5.75;86.97;101698.31;5157703;27;20468;-60
2020/12/18 03:04:36;;;;;;;24.60;10.43;;;;;;;5.74;87.28;101692.28;5155727;27;20831;-60
2020/12/18 03:07:02;;;;;;;20.73;10.57;;;;;;;5.70;87.51;101691.94;5157506;27;20551;-60
2020/12/18 03:09:30;;;;;;;24.93;11.83;;;;;;;5.75;87.24;101691.50;5156366;27;20498;-60
2020/12/18 03:11:56;;;;;;;22.90;9.90;;;;;;;5.76;87.07;101689.84;5157826;27;20542;-59
2020/12/18 03:14:23;;;;;;;20.33;11.00;;;;;;;5.80;87.23;101679.94;5155838;27;20559;-60
2020/12/18 03:16:49;;;;;;;28.67;10.53;;;;;;;5.80;86.88;101674.81;5157715;27;20452;-60
2020/12/18 03:19:17;;;;;;;27.60;11.37;;;;;;;5.76;87.21;101675.38;5155871;27;20515;-60
2020/12/18 03:21:44;;;;;;;21.60;11.80;;;;;;;5.78;87.00;101672.91;5157572;27;20455;-60
2020/12/18 03:24:10;;;;;;;24.80;12.40;;;;;;;5.83;87.15;101673.28;5155548;27;20546;-60
2020/12/18 03:26:37;;;;;;;21.10;11.43;;;;;;;5.71;87.43;101679.25;5159491;27;20852;-60
2020/12/18 03:29:03;;;;;;;19.30;11.67;;;;;;;5.73;87.54;101667.44;5160167;27;20842;-60
2020/12/18 03:31:30;;;;;;;19.27;10.83;;;;;;;5.81;87.25;101665.47;5161531;27;20841;-60
2020/12/18 03:33:57;;;;;;;24.10;11.60;;;;;;;5.80;87.26;101672.25;5160541;27;20451;-60
2020/12/18 03:36:24;;;;;;;20.17;10.50;;;;;;;5.74;87.67;101666.66;5159518;27;20561;-59
2020/12/18 03:38:51;;;;;;;26.13;12.00;;;;;;;5.69;87.63;101670.53;5161425;27;20541;-60
2020/12/18 03:41:17;;;;;;;20.27;12.00;;;;;;;5.74;87.69;101670.91;5158782;27;20562;-60
2020/12/18 03:43:44;;;;;;;21.63;11.80;;;;;;;5.69;87.59;101670.53;5160761;27;20480;-60
2020/12/18 03:46:12;;;;;;;34.77;11.80;;;;;;;5.75;87.25;101665.88;5159329;27;20482;-60
2020/12/18 03:48:38;;;;;;;20.10;8.30;;;;;;;5.70;87.34;101680.03;5160704;27;20448;-60
2020/12/18 03:51:05;;;;;;;20.00;11.43;;;;;;;5.73;87.36;101685.38;5159415;27;20477;-59
2020/12/18 03:53:32;;;;;;;22.70;11.97;;;;;;;5.67;87.61;101677.22;5160830;27;20547;-59
2020/12/18 03:55:59;;;;;;;22.93;11.63;;;;;;;5.70;87.41;101682.59;5159019;27;20498;-60
2020/12/18 03:58:26;;;;;;;23.93;13.33;;;;;;;5.76;87.28;101679.59;5160984;27;20455;-59
2020/12/18 04:00:52;;;;;;;20.50;9.37;;;;;;;5.68;87.49;101679.00;5158913;27;20508;-60
2020/12/18 04:03:19;;;;;;;17.40;10.87;;;;;;;5.73;87.25;101689.59;5160807;27;20462;-59
2020/12/18 04:05:46;;;;;;;24.50;12.93;;;;;;;5.71;87.36;101692.06;5158832;27;20472;-59
2020/12/18 04:08:13;;;;;;;23.00;11.23;;;;;;;5.74;87.13;101688.84;5160950;27;20452;-59
2020/12/18 04:10:40;;;;;;;21.80;12.57;;;;;;;5.72;87.19;101695.50;5159315;27;20587;-59
2020/12/18 04:13:07;;;;;;;25.83;12.87;;;;;;;5.74;87.19;101699.97;5161017;27;20450;-59
2020/12/18 04:15:34;;;;;;;25.90;12.90;;;;;;;5.74;87.05;101693.97;5158681;27;20487;-60
2020/12/18 04:18:01;;;;;;;18.83;11.50;;;;;;;5.75;86.93;101690.63;5160713;27;20957;-60
2020/12/18 04:20:27;;;;;;;27.43;13.37;;;;;;;5.77;87.06;101695.09;5159114;27;20560;-58
2020/12/18 04:22:54;;;;;;;22.03;12.63;;;;;;;5.73;87.05;101695.63;5160559;27;20484;-60
2020/12/18 04:25:21;;;;;;;21.80;13.90;;;;;;;5.78;86.95;101696.88;5158478;27;20480;-59
2020/12/18 04:27:48;;;;;;;22.70;12.50;;;;;;;5.77;87.11;101695.09;5160689;27;20496;-60
2020/12/18 04:30:15;;;;;;;19.73;12.17;;;;;;;5.78;86.84;101688.28;5158781;27;20783;-59
2020/12/18 04:32:42;;;;;;;24.53;11.77;;;;;;;5.80;86.71;101679.94;5160292;27;20460;-60
2020/12/18 04:35:08;;;;;;;26.23;11.97;;;;;;;5.81;86.42;101691.97;5158382;27;20473;-60
2020/12/18 04:37:35;;;;;;;22.50;11.90;;;;;;;5.76;86.41;101698.44;5159089;27;20539;-60
2020/12/18 04:40:01;;;;;;;23.93;12.80;;;;;;;5.74;86.78;101686.28;5158545;27;20575;-60
2020/12/18 04:42:28;;;;;;;23.70;12.63;;;;;;;5.76;86.43;101688.19;5160037;27;20447;-60
2020/12/18 04:44:56;;;;;;;34.93;14.30;;;;;;;5.69;86.63;101691.03;5158296;27;21040;-59
2020/12/18 04:47:22;;;;;;;23.93;14.40;;;;;;;5.74;86.58;101689.72;5160217;27;20482;-59
2020/12/18 04:49:49;;;;;;;27.60;13.83;;;;;;;5.68;86.77;101692.72;5158355;27;20520;-60
2020/12/18 04:52:16;;;;;;;26.00;13.90;;;;;;;5.75;86.63;101691.50;5159880;27;20873;-60
2020/12/18 04:54:44;;;;;;;23.53;13.30;;;;;;;5.67;86.53;101698.63;5158071;27;20531;-60
2020/12/18 04:57:13;;;;;;;36.80;13.13;;;;;;;5.67;86.44;101693.50;5159759;27;20865;-60
2020/12/18 04:59:42;;;;;;;26.53;12.97;;;;;;;5.64;86.60;101692.38;5157879;27;20476;-59
2020/12/18 05:02:10;;;;;;;24.60;13.40;;;;;;;5.64;86.58;101689.81;5159522;27;20505;-60
2020/12/18 05:04:40;;;;;;;26.60;12.80;;;;;;;5.64;86.54;101693.25;5157908;27;20473;-60
2020/12/18 05:07:07;;;;;;;32.03;13.80;;;;;;;5.68;86.44;101692.72;5159892;27;20796;-60
2020/12/18 05:09:33;;;;;;;21.13;11.43;;;;;;;5.62;86.66;101693.91;5157891;27;20543;-60
2020/12/18 05:12:04;;;;;;;20.50;11.67;;;;;;;5.56;86.59;101689.22;5159553;27;20544;-60
2020/12/18 05:14:31;;;;;;;23.77;12.07;;;;;;;5.65;86.77;101697.59;5157499;27;20920;-59
2020/12/18 05:17:04;;;;;;;23.13;12.10;;;;;;;5.65;86.60;101689.91;5159699;27;20548;-60
2020/12/18 05:19:35;;;;;;;24.97;12.50;;;;;;;5.54;86.83;101691.66;5157832;27;20466;-60
2020/12/18 05:22:04;;;;;;;22.40;11.80;;;;;;;5.52;86.85;101692.28;5159336;27;20447;-58
2020/12/18 05:24:31;;;;;;;27.70;14.77;;;;;;;5.54;86.81;101683.97;5157329;27;20462;-60
2020/12/18 05:26:58;;;;;;;26.33;12.60;;;;;;;5.57;86.61;101695.19;5159491;27;20494;-60
2020/12/18 05:29:26;;;;;;;25.60;13.33;;;;;;;5.61;86.63;101702.34;5157976;27;20526;-60
2020/12/18 05:31:55;;;;;;;20.33;12.00;;;;;;;5.52;86.61;101699.97;5159378;27;20473;-59
2020/12/18 05:34:22;;;;;;;22.53;11.13;;;;;;;5.51;86.77;101693.97;5157214;27;20571;-59
2020/12/18 05:36:49;;;;;;;19.07;11.10;;;;;;;5.42;87.02;101690.69;5159313;27;20451;-59
2020/12/18 05:39:16;;;;;;;28.27;12.90;;;;;;;5.42;86.94;101679.59;5157315;27;20491;-60
2020/12/18 05:41:44;;;;;;;27.97;13.37;;;;;;;5.45;86.99;101679.81;5158334;27;20469;-59
2020/12/18 05:44:11;;;;;;;27.40;12.37;;;;;;;5.34;87.29;101687.53;5156735;27;20890;-60
2020/12/18 05:46:39;;;;;;;16.23;8.23;;;;;;;5.33;87.20;101684.88;5158821;27;20483;-59
2020/12/18 05:49:07;;;;;;;22.67;11.60;;;;;;;5.32;87.42;101689.09;5156905;27;20843;-59
2020/12/18 05:51:35;;;;;;;23.87;8.87;;;;;;;5.16;87.90;101687.00;5158496;27;20571;-58
2020/12/18 05:54:17;;;;;;;21.60;12.27;;;;;;;5.24;87.59;101680.81;5157054;27;20538;-60
2020/12/18 05:56:46;;;;;;;26.63;13.47;;;;;;;5.30;87.58;101685.53;5158731;27;20451;-58
2020/12/18 05:59:14;;;;;;;24.60;12.67;;;;;;;5.31;87.39;101682.19;5156612;27;20538;-58
2020/12/18 06:01:42;;;;;;;21.87;13.10;;;;;;;5.31;87.60;101681.28;5158593;27;21007;-58
2020/12/18 06:04:11;;;;;;;32.20;14.40;;;;;;;5.23;87.81;101688.38;5156257;27;20830;-59
2020/12/18 06:06:43;;;;;;;27.90;13.87;;;;;;;5.22;88.10;101684.91;5158504;27;20483;-58
2020/12/18 06:09:11;;;;;;;25.00;12.97;;;;;;;5.23;88.00;101685.81;5157377;27;20454;-60
2020/12/18 06:11:38;;;;;;;31.53;14.60;;;;;;;5.19;88.37;101688.91;5158300;27;20835;-60
2020/12/18 06:14:07;;;;;;;38.37;14.33;;;;;;;5.25;88.06;101691.94;5156581;27;20907;-60
2020/12/18 06:16:36;;;;;;;29.70;12.37;;;;;;;5.23;88.05;101689.25;5158091;27;20489;-60
2020/12/18 06:19:04;;;;;;;23.90;13.27;;;;;;;5.30;87.92;101693.19;5156995;27;20483;-60
2020/12/18 06:21:31;;;;;;;23.70;13.60;;;;;;;5.20;88.03;101699.25;5158048;27;20924;-60
2020/12/18 06:23:58;;;;;;;27.87;13.50;;;;;;;5.19;88.12;101692.38;5157981;27;20551;-60
2020/12/18 06:26:26;;;;;;;22.33;11.60;;;;;;;5.14;88.44;101698.78;5157649;27;20772;-60
2020/12/18 06:28:54;;;;;;;24.33;13.27;;;;;;;5.18;88.29;101694.81;5158150;27;20541;-60
2020/12/18 06:31:25;;;;;;;43.20;12.43;;;;;;;5.12;88.51;101698.66;5156208;27;20475;-60
2020/12/18 06:33:53;;;;;;;18.50;10.20;;;;;;;5.12;88.30;101695.19;5158365;27;20448;-60
2020/12/18 06:36:58;;;;;;;27.67;12.33;;;;;;;5.10;88.69;101696.75;5149416;27;20470;-60
2020/12/18 06:39:30;;;;;;;24.10;12.67;;;;;;;5.17;88.31;101699.00;5156911;27;20471;-60
2020/12/18 06:42:12;;;;;;;34.23;13.90;;;;;;;5.06;88.64;101692.16;5158014;27;20538;-59
2020/12/18 06:44:41;;;;;;;34.93;14.70;;;;;;;5.08;88.49;101703.41;5152644;27;20474;-59
2020/12/18 06:47:09;;;;;;;31.20;14.63;;;;;;;5.10;88.50;101701.84;5158019;27;20949;-60
2020/12/18 06:50:05;;;;;;;25.00;13.50;;;;;;;5.05;88.57;101700.59;5156285;27;20491;-60
2020/12/18 06:52:46;;;;;;;31.27;13.30;;;;;;;4.94;88.69;101693.00;5157921;27;20447;-60
2020/12/18 06:55:15;;;;;;;26.50;13.20;;;;;;;4.85;89.32;101689.69;5152969;27;20792;-59
2020/12/18 06:57:42;;;;;;;32.93;14.70;;;;;;;4.93;88.95;101698.84;5157848;27;20758;-58
2020/12/18 07:00:29;;;;;;;25.23;12.53;;;;;;;4.90;89.18;101693.50;5156221;27;20529;-58
2020/12/18 07:02:59;;;;;;;26.13;14.37;;;;;;;4.89;89.10;101691.72;5161879;27;20462;-58
2020/12/18 07:05:36;;;;;;;26.90;13.70;;;;;;;4.87;89.12;101693.25;5159916;27;20475;-59
2020/12/18 07:08:05;;;;;;;27.37;13.37;;;;;;;4.77;89.43;101700.97;5161908;27;20884;-58
2020/12/18 07:10:37;;;;;;;30.60;14.80;;;;;;;4.80;89.46;101701.19;5160208;27;20978;-59
2020/12/18 07:13:05;;;;;;;28.40;14.37;;;;;;;4.73;89.84;101700.69;5161971;27;20545;-60
2020/12/18 07:16:03;;;;;;;30.30;14.60;;;;;;;4.70;89.84;101697.00;5159817;27;20473;-59
2020/12/18 07:18:30;;;;;;;31.83;14.30;;;;;;;4.73;89.89;101694.72;5058213;28;20455;-60
2020/12/18 07:20:59;;;;;;;32.23;15.77;;;;;;;4.68;90.11;101696.00;5136795;27;21006;-60
2020/12/18 07:23:27;;;;;;;31.07;15.13;;;;;;;4.68;90.20;101701.13;5161412;27;20592;-60
2020/12/18 07:25:54;;;;;;;32.53;15.60;;;;;;;4.64;90.31;101699.97;5159631;27;20554;-60
2020/12/18 07:28:21;;;;;;;30.97;15.30;;;;;;;4.69;90.23;101701.25;5161780;27;20458;-59
2020/12/18 07:30:49;;;;;;;28.33;14.13;;;;;;;4.72;89.93;101704.03;5159815;27;20497;-60
2020/12/18 07:33:18;;;;;;;27.60;14.97;;;;;;;4.70;90.32;101697.00;5161375;27;20465;-60
2020/12/18 07:35:47;;;;;;;39.20;16.50;;;;;;;4.66;90.33;101695.88;5159126;27;20508;-60
2020/12/18 07:38:15;;;;;;;31.43;15.47;;;;;;;4.66;90.25;101700.97;5161476;27;20454;-60
2020/12/18 07:40:43;;;;;;;31.20;15.10;;;;;;;4.66;90.19;101693.31;5159900;27;20583;-60
2020/12/18 07:43:10;;;;;;;33.83;14.77;;;;;;;4.69;90.26;101692.66;5160896;27;20550;-59
2020/12/18 07:45:39;;;;;;;24.90;11.50;;;;;;;4.62;90.52;101691.28;5157613;27;20477;-60
2020/12/18 07:48:13;;;;;;;28.43;14.37;;;;;;;4.65;90.37;101695.72;5160670;27;20489;-60
2020/12/18 07:50:40;;;;;;;44.50;15.20;;;;;;;4.74;90.31;101691.38;5159624;27;20482;-60
2020/12/18 07:53:08;;;;;;;29.80;14.80;;;;;;;4.70;90.14;101691.91;5160749;27;20748;-59
2020/12/18 07:55:35;;;;;;;37.37;15.30;;;;;;;4.73;90.31;101689.59;5159025;27;20574;-60
2020/12/18 07:58:01;;;;;;;33.20;14.63;;;;;;;4.74;90.14;101688.81;5161296;27;20819;-59
2020/12/18 08:00:28;;;;;;;34.77;14.00;;;;;;;4.75;89.95;101684.59;5159160;27;20479;-60
2020/12/18 08:02:54;;;;;;;31.33;14.90;;;;;;;4.79;89.75;101681.50;5160744;27;20463;-56
2020/12/18 08:05:21;;;;;;;24.13;14.57;;;;;;;4.78;89.92;101683.19;5157465;27;20558;-60
2020/12/18 08:07:50;;;;;;;27.17;14.93;;;;;;;4.82;89.70;101680.09;5160672;27;20541;-59
2020/12/18 08:10:17;;;;;;;27.10;13.53;;;;;;;4.78;89.85;101677.19;5159280;27;20471;-60
2020/12/18 08:12:49;;;;;;;30.07;14.73;;;;;;;4.72;90.13;101680.16;5160492;27;20531;-60
2020/12/18 08:15:16;;;;;;;25.47;13.93;;;;;;;4.78;89.80;101679.72;5158539;27;20483;-60
2020/12/18 08:17:45;;;;;;;29.37;12.50;;;;;;;4.83;89.56;101683.56;5160424;27;20815;-60
2020/12/18 08:20:14;;;;;;;27.63;14.47;;;;;;;4.82;89.80;101680.09;5159259;27;20479;-60
2020/12/18 08:22:43;;;;;;;27.10;13.60;;;;;;;4.81;89.60;101697.84;5160563;27;20625;-60
2020/12/18 08:25:12;;;;;;;28.00;14.00;;;;;;;4.97;89.22;101685.53;5158372;27;20483;-60
2020/12/18 08:27:42;;;;;;;34.90;14.70;;;;;;;4.83;89.44;101687.00;5160293;27;20491;-60
2020/12/18 08:30:10;;;;;;;25.07;13.00;;;;;;;4.91;89.30;101679.94;5158771;27;20472;-60
2020/12/18 08:32:38;;;;;;;33.63;14.77;;;;;;;4.89;89.39;101681.50;5160456;27;20455;-60
2020/12/18 08:35:06;;;;;;;29.37;13.70;;;;;;;4.87;89.28;101683.00;5158480;27;20833;-60
2020/12/18 08:37:33;;;;;;;30.10;14.17;;;;;;;4.96;89.06;101693.09;5160113;27;20447;-60
2020/12/18 08:40:00;;;;;;;26.20;13.13;;;;;;;5.01;88.80;101686.66;5158722;27;20506;-60
2020/12/18 08:42:27;;;;;;;23.63;11.67;;;;;;;4.97;88.72;101690.66;5160026;27;20804;-60
2020/12/18 08:44:54;;;;;;;24.00;11.93;;;;;;;4.93;88.85;101687.75;5158273;27;20551;-60
2020/12/18 08:47:22;;;;;;;26.00;11.53;;;;;;;4.90;89.06;101692.59;5160329;27;20504;-60
2020/12/18 08:49:50;;;;;;;26.17;12.93;;;;;;;5.08;88.88;101695.75;5158513;27;20560;-60
2020/12/18 08:52:22;;;;;;;22.10;11.17;;;;;;;4.95;89.18;101692.22;5160018;27;20447;-60
2020/12/18 08:54:59;;;;;;;21.17;11.50;;;;;;;4.99;88.93;101688.22;5158065;27;20485;-60
2020/12/18 08:57:28;;;;;;;21.40;11.73;;;;;;;4.96;88.72;101690.53;5160182;27;20454;-60
2020/12/18 08:59:58;;;;;;;18.83;11.00;;;;;;;4.95;88.90;101687.09;5158086;27;20476;-60
2020/12/18 09:02:25;;;;;;;27.73;10.53;;;;;;;5.03;88.73;101695.34;5159579;27;20558;-60
2020/12/18 09:05:24;;;;;;;23.67;12.23;;;;;;;4.99;88.76;101694.22;5157720;27;20491;-60
2020/12/18 09:07:58;;;;;;;18.67;9.77;;;;;;;4.99;88.75;101693.34;5144522;27;20835;-60
2020/12/18 09:10:40;;;;;;;27.80;10.70;;;;;;;5.03;88.83;101694.47;5158216;27;20478;-59
2020/12/18 09:13:18;;;;;;;28.63;9.70;;;;;;;5.10;88.19;101700.22;5159679;27;20542;-60
2020/12/18 09:15:47;;;;;;;20.80;9.80;;;;;;;5.08;88.29;101700.84;5156450;27;20912;-60
2020/12/18 09:18:14;;;;;;;21.83;9.83;;;;;;;5.07;88.42;101706.75;5159570;27;20456;-59
2020/12/18 09:20:42;;;;;;;16.33;7.80;;;;;;;5.09;88.04;101705.19;5157962;27;20924;-59
2020/12/18 09:23:10;;;;;;;15.50;8.90;;;;;;;5.12;88.14;101698.66;5159033;27;20542;-60
2020/12/18 09:25:40;;;;;;;21.23;7.63;;;;;;;5.19;87.96;101701.69;5156920;27;20559;-60
2020/12/18 09:28:11;;;;;;;18.20;7.60;;;;;;;5.18;87.60;101699.91;5159781;27;20763;-60
2020/12/18 09:30:39;;;;;;;20.60;8.23;;;;;;;5.23;87.61;101703.75;5157547;27;20475;-60
2020/12/18 09:33:25;;;;;;;17.27;8.00;;;;;;;5.31;87.19;101701.75;5159290;27;20819;-58
2020/12/18 09:35:56;;;;;;;13.60;6.67;;;;;;;5.39;86.97;101698.16;5157139;27;20931;-60
2020/12/18 09:38:27;;;;;;;16.50;8.03;;;;;;;5.48;86.77;101696.28;5159067;27;20534;-59
2020/12/18 09:40:54;;;;;;;19.00;7.10;;;;;;;5.49;86.30;101690.38;5156494;27;20475;-60
2020/12/18 09:43:21;;;;;;;17.13;7.27;;;;;;;5.57;86.17;101695.19;5158285;27;20452;-58
2020/12/18 09:45:49;;;;;;;10.60;6.83;;;;;;;5.58;85.82;101684.22;5156799;27;20944;-60
2020/12/18 09:48:16;;;;;;;10.67;6.40;;;;;;;5.66;85.66;101683.13;5158794;27;20586;-60
2020/12/18 09:50:43;;;;;;;9.57;6.20;;;;;;;5.71;85.08;101686.94;5157067;27;20822;-60
2020/12/18 09:53:09;;;;;;;14.10;7.03;;;;;;;5.75;85.26;101686.38;5158632;27;20456;-60
2020/12/18 09:55:36;;;;;;;11.83;5.90;;;;;;;5.63;85.13;101690.56;5156529;27;20484;-60
2020/12/18 09:58:04;;;;;;;9.90;5.57;;;;;;;5.71;84.98;101694.63;5158507;27;20471;-60
2020/12/18 10:00:31;;;;;;;9.60;5.30;;;;;;;5.74;84.94;101687.16;5156807;27;20488;-60
2020/12/18 10:02:59;;;;;;;13.50;6.27;;;;;;;5.73;84.72;101684.47;5158073;27;20469;-59
2020/12/18 10:05:26;;;;;;;18.83;7.50;;;;;;;5.78;84.69;101691.75;5156388;27;20486;-59
2020/12/18 10:07:53;;;;;;;11.73;6.80;;;;;;;5.88;84.11;101692.44;5158274;27;20487;-60
2020/12/18 10:10:19;;;;;;;11.43;6.00;;;;;;;5.83;84.35;101691.22;5156751;27;20558;-59
2020/12/18 10:12:46;;;;;;;13.70;6.10;;;;;;;5.76;84.31;101688.19;5156743;27;20464;-55
2020/12/18 10:15:13;;;;;;;22.20;6.47;;;;;;;5.86;84.12;101688.88;5155682;27;20475;-58
2020/12/18 10:17:39;;;;;;;20.20;7.07;;;;;;;5.88;84.20;101687.31;5158247;27;20543;-57
2020/12/18 10:20:09;;;;;;;17.33;9.40;;;;;;;5.97;84.52;101693.16;5156356;27;20486;-58
2020/12/18 10:22:37;;;;;;;14.60;8.33;;;;;;;5.94;83.84;101687.78;5157907;27;20455;-56
2020/12/18 10:25:03;;;;;;;13.10;6.03;;;;;;;5.93;83.45;101686.91;5156051;27;20634;-58
2020/12/18 10:27:30;;;;;;;12.07;7.10;;;;;;;5.84;83.97;101690.44;5158095;27;20455;-56
2020/12/18 10:29:57;;;;;;;10.47;5.50;;;;;;;5.84;83.92;101685.31;5155976;27;20476;-59
2020/12/18 10:32:26;;;;;;;13.03;5.37;;;;;;;5.90;83.71;101685.78;5157675;27;20496;-59
2020/12/18 10:34:53;;;;;;;23.00;10.57;;;;;;;6.06;83.73;101675.91;5155634;27;20479;-54
2020/12/18 10:37:21;;;;;;;9.90;4.93;;;;;;;6.08;83.00;101683.72;5157181;27;20550;-60
2020/12/18 10:39:48;;;;;;;11.87;6.03;;;;;;;6.04;83.11;101681.69;5156350;27;20812;-56
2020/12/18 10:42:14;;;;;;;8.43;4.20;;;;;;;6.06;83.41;101687.84;5157615;27;20941;-57
2020/12/18 10:44:41;;;;;;;11.70;5.50;;;;;;;6.15;82.97;101688.53;5152862;27;20569;-57
2020/12/18 10:47:08;;;;;;;16.00;7.10;;;;;;;6.26;82.66;101676.50;5157627;27;20451;-55
2020/12/18 10:49:34;;;;;;;14.80;6.40;;;;;;;6.31;82.52;101674.31;5156157;27;20513;-54
2020/12/18 10:52:01;;;;;;;20.10;8.83;;;;;;;6.40;82.13;101669.84;5157646;27;20460;-59
2020/12/18 10:54:29;;;;;;;16.90;6.97;;;;;;;6.51;82.36;101674.88;5155493;27;20563;-61
2020/12/18 10:57:07;;;;;;;14.27;4.90;;;;;;;6.52;81.81;101669.88;5157428;27;20445;-54
2020/12/18 10:59:33;;;;;;;11.50;5.50;;;;;;;6.64;81.72;101663.81;5156214;27;20469;-56
2020/12/18 11:02:00;;;;;;;9.70;5.07;;;;;;;6.65;81.39;101661.38;5157298;27;20484;-59
2020/12/18 11:04:27;;;;;;;13.20;5.70;;;;;;;6.72;81.00;101662.72;5155485;27;20785;-60
2020/12/18 11:06:54;;;;;;;16.27;5.20;;;;;;;6.73;80.64;101661.94;5157742;27;20546;-60
2020/12/18 11:09:21;;;;;;;12.17;5.30;;;;;;;6.84;80.56;101660.13;5156011;27;20489;-60
2020/12/18 11:11:52;;;;;;;8.10;4.87;;;;;;;6.81;80.45;101662.50;5157456;27;20453;-60
2020/12/18 11:14:19;;;;;;;7.73;3.40;;;;;;;6.86;80.39;101672.28;5155714;27;20450;-60
2020/12/18 11:16:46;;;;;;;9.50;4.80;;;;;;;6.89;80.57;101667.38;5157192;27;20822;-60
2020/12/18 11:19:13;;;;;;;10.50;4.23;;;;;;;6.95;80.22;101671.16;5156063;27;20460;-60
2020/12/18 11:21:43;;;;;;;7.00;4.10;;;;;;;6.96;79.91;101678.06;5157266;27;20481;-60
2020/12/18 11:24:10;;;;;;;8.73;5.53;;;;;;;7.05;79.78;101671.03;5155734;27;20906;-60